sensor_id;sensor_type;location;lat;lon;timestamp;temperature;humidity
14531;DHT22;7352;50.866;4.366;2023-03-14T00:02:17;12.90;99.90
14531;DHT22;7352;50.866;4.366;2023-03-14T00:04:44;12.80;99.90
14531;DHT22;7352;50.866;4.366;2023-03-14T00:07:13;12.70;99.90
14531;DHT22;7352;50.866;4.366;2023-03-14T00:09:44;12.60;99.90
14531;DHT22;7352;50.866;4.366;2023-03-14T00:12:10;12.70;99.90
14531;DHT22;7352;50.866;4.366;2023-03-14T00:14:39;12.70;99.90
14531;DHT22;7352;50.866;4.366;2023-03-14T00:17:08;12.50;99.90
14531;DHT22;7352;50.866;4.366;2023-03-14T00:19:36;12.60;99.90
14531;DHT22;7352;50.866;4.366;2023-03-14T00:22:03;12.40;99.90
14531;DHT22;7352;50.866;4.366;2023-03-14T00:24:30;12.60;99.90
14531;DHT22;7352;50.866;4.366;2023-03-14T00:26:58;12.60;99.90
14531;DHT22;7352;50.866;4.366;2023-03-14T00:29:25;12.50;99.90
14531;DHT22;7352;50.866;4.366;2023-03-14T00:31:53;12.40;99.90
14531;DHT22;7352;50.866;4.366;2023-03-14T00:34:20;12.30;99.90
14531;DHT22;7352;50.866;4.366;2023-03-14T00:36:47;12.20;99.90
14531;DHT22;7352;50.866;4.366;2023-03-14T00:39:15;12.30;99.90
14531;DHT22;7352;50.866;4.366;2023-03-14T00:41:42;12.20;99.90
14531;DHT22;7352;50.866;4.366;2023-03-14T00:44:10;12.30;99.90
14531;DHT22;7352;50.866;4.366;2023-03-14T00:46:37;12.20;99.90
14531;DHT22;7352;50.866;4.366;2023-03-14T00:49:05;12.30;99.90
14531;DHT22;7352;50.866;4.366;2023-03-14T00:51:34;12.20;99.90
14531;DHT22;7352;50.866;4.366;2023-03-14T00:54:01;12.20;99.90
14531;DHT22;7352;50.866;4.366;2023-03-14T00:56:28;12.30;99.90
14531;DHT22;7352;50.866;4.366;2023-03-14T00:58:56;12.30;99.90
14531;DHT22;7352;50.866;4.366;2023-03-14T01:01:24;12.30;99.90
14531;DHT22;7352;50.866;4.366;2023-03-14T01:03:53;12.30;99.90
14531;DHT22;7352;50.866;4.366;2023-03-14T01:06:23;12.10;99.90
14531;DHT22;7352;50.866;4.366;2023-03-14T01:08:51;12.20;99.90
14531;DHT22;7352;50.866;4.366;2023-03-14T01:11:19;12.20;99.90
14531;DHT22;7352;50.866;4.366;2023-03-14T01:13:48;12.10;99.90
14531;DHT22;7352;50.866;4.366;2023-03-14T01:16:16;12.20;99.90
14531;DHT22;7352;50.866;4.366;2023-03-14T01:18:49;12.20;99.90
14531;DHT22;7352;50.866;4.366;2023-03-14T01:21:24;12.10;99.90
14531;DHT22;7352;50.866;4.366;2023-03-14T01:23:55;12.20;99.90
14531;DHT22;7352;50.866;4.366;2023-03-14T01:26:29;12.20;99.90
14531;DHT22;7352;50.866;4.366;2023-03-14T01:29:04;12.30;99.90
14531;DHT22;7352;50.866;4.366;2023-03-14T01:31:34;12.30;99.90
14531;DHT22;7352;50.866;4.366;2023-03-14T01:34:20;12.30;99.90
14531;DHT22;7352;50.866;4.366;2023-03-14T01:36:54;12.10;99.90
14531;DHT22;7352;50.866;4.366;2023-03-14T01:39:23;12.10;99.90
14531;DHT22;7352;50.866;4.366;2023-03-14T01:41:50;12.10;99.90
14531;DHT22;7352;50.866;4.366;2023-03-14T01:44:20;11.90;99.90
14531;DHT22;7352;50.866;4.366;2023-03-14T01:46:49;12.00;99.90
14531;DHT22;7352;50.866;4.366;2023-03-14T01:49:38;12.00;99.90
14531;DHT22;7352;50.866;4.366;2023-03-14T01:52:11;11.90;99.90
14531;DHT22;7352;50.866;4.366;2023-03-14T01:54:43;11.80;99.90
14531;DHT22;7352;50.866;4.366;2023-03-14T01:57:18;11.80;99.90
14531;DHT22;7352;50.866;4.366;2023-03-14T01:59:52;11.80;99.90
14531;DHT22;7352;50.866;4.366;2023-03-14T02:02:21;11.90;99.90
14531;DHT22;7352;50.866;4.366;2023-03-14T02:04:52;11.90;99.90
14531;DHT22;7352;50.866;4.366;2023-03-14T02:07:23;12.00;99.90
14531;DHT22;7352;50.866;4.366;2023-03-14T02:09:52;11.90;99.90
14531;DHT22;7352;50.866;4.366;2023-03-14T02:12:22;11.90;99.90
14531;DHT22;7352;50.866;4.366;2023-03-14T02:14:51;11.80;99.90
14531;DHT22;7352;50.866;4.366;2023-03-14T02:17:19;11.80;99.90
14531;DHT22;7352;50.866;4.366;2023-03-14T02:20:03;11.70;99.90
14531;DHT22;7352;50.866;4.366;2023-03-14T02:22:37;11.80;99.90
14531;DHT22;7352;50.866;4.366;2023-03-14T02:25:08;11.80;99.90
14531;DHT22;7352;50.866;4.366;2023-03-14T02:27:39;11.80;99.90
14531;DHT22;7352;50.866;4.366;2023-03-14T02:30:10;11.70;99.90
14531;DHT22;7352;50.866;4.366;2023-03-14T02:32:41;11.70;99.90
14531;DHT22;7352;50.866;4.366;2023-03-14T02:35:12;11.60;99.90
14531;DHT22;7352;50.866;4.366;2023-03-14T02:37:51;11.50;99.90
14531;DHT22;7352;50.866;4.366;2023-03-14T02:40:19;11.60;99.90
14531;DHT22;7352;50.866;4.366;2023-03-14T02:42:47;11.60;99.90
14531;DHT22;7352;50.866;4.366;2023-03-14T02:45:33;11.60;99.90
14531;DHT22;7352;50.866;4.366;2023-03-14T02:48:02;11.70;99.90
14531;DHT22;7352;50.866;4.366;2023-03-14T02:50:33;11.70;99.90
14531;DHT22;7352;50.866;4.366;2023-03-14T02:53:00;11.60;99.90
14531;DHT22;7352;50.866;4.366;2023-03-14T02:55:28;11.70;99.90
14531;DHT22;7352;50.866;4.366;2023-03-14T02:57:56;11.50;99.90
14531;DHT22;7352;50.866;4.366;2023-03-14T03:00:23;11.40;99.90
14531;DHT22;7352;50.866;4.366;2023-03-14T03:02:50;11.50;99.90
14531;DHT22;7352;50.866;4.366;2023-03-14T03:05:17;11.60;99.90
14531;DHT22;7352;50.866;4.366;2023-03-14T03:07:44;11.60;99.90
14531;DHT22;7352;50.866;4.366;2023-03-14T03:10:14;11.70;99.90
14531;DHT22;7352;50.866;4.366;2023-03-14T03:12:41;11.70;99.90
14531;DHT22;7352;50.866;4.366;2023-03-14T03:15:38;11.70;99.90
14531;DHT22;7352;50.866;4.366;2023-03-14T03:18:06;11.90;99.90
14531;DHT22;7352;50.866;4.366;2023-03-14T03:20:39;12.00;99.90
14531;DHT22;7352;50.866;4.366;2023-03-14T03:23:09;11.90;99.90
14531;DHT22;7352;50.866;4.366;2023-03-14T03:25:36;12.00;99.90
14531;DHT22;7352;50.866;4.366;2023-03-14T03:28:06;11.90;99.90
14531;DHT22;7352;50.866;4.366;2023-03-14T03:30:38;11.90;99.90
14531;DHT22;7352;50.866;4.366;2023-03-14T03:33:05;11.80;99.90
14531;DHT22;7352;50.866;4.366;2023-03-14T03:35:33;11.70;99.90
14531;DHT22;7352;50.866;4.366;2023-03-14T03:38:00;11.80;99.90
14531;DHT22;7352;50.866;4.366;2023-03-14T03:40:27;11.90;99.90
14531;DHT22;7352;50.866;4.366;2023-03-14T03:42:54;11.70;99.90
14531;DHT22;7352;50.866;4.366;2023-03-14T03:45:21;11.70;99.90
14531;DHT22;7352;50.866;4.366;2023-03-14T03:47:50;11.70;99.90
14531;DHT22;7352;50.866;4.366;2023-03-14T03:50:17;11.80;99.90
14531;DHT22;7352;50.866;4.366;2023-03-14T03:52:45;11.70;99.90
14531;DHT22;7352;50.866;4.366;2023-03-14T03:55:12;11.60;99.90
14531;DHT22;7352;50.866;4.366;2023-03-14T03:57:39;11.80;99.90
14531;DHT22;7352;50.866;4.366;2023-03-14T04:00:07;11.70;99.90
14531;DHT22;7352;50.866;4.366;2023-03-14T04:02:37;11.60;99.90
14531;DHT22;7352;50.866;4.366;2023-03-14T04:05:08;11.50;99.90
14531;DHT22;7352;50.866;4.366;2023-03-14T04:07:35;11.50;99.90
14531;DHT22;7352;50.866;4.366;2023-03-14T04:10:02;11.60;99.90
14531;DHT22;7352;50.866;4.366;2023-03-14T04:12:29;11.50;99.90
14531;DHT22;7352;50.866;4.366;2023-03-14T04:14:57;11.40;99.90
14531;DHT22;7352;50.866;4.366;2023-03-14T04:17:24;11.50;99.90
14531;DHT22;7352;50.866;4.366;2023-03-14T04:19:51;11.60;99.90
14531;DHT22;7352;50.866;4.366;2023-03-14T04:22:23;11.60;99.90
14531;DHT22;7352;50.866;4.366;2023-03-14T04:24:50;11.70;99.90
14531;DHT22;7352;50.866;4.366;2023-03-14T04:27:17;11.70;99.90
14531;DHT22;7352;50.866;4.366;2023-03-14T04:29:44;11.80;99.90
14531;DHT22;7352;50.866;4.366;2023-03-14T04:32:11;12.00;99.90
14531;DHT22;7352;50.866;4.366;2023-03-14T04:34:38;11.90;99.90
14531;DHT22;7352;50.866;4.366;2023-03-14T04:37:06;11.90;99.90
14531;DHT22;7352;50.866;4.366;2023-03-14T04:39:34;11.90;99.90
14531;DHT22;7352;50.866;4.366;2023-03-14T04:42:01;11.90;99.90
14531;DHT22;7352;50.866;4.366;2023-03-14T04:44:28;12.00;99.90
14531;DHT22;7352;50.866;4.366;2023-03-14T04:46:58;12.00;99.90
14531;DHT22;7352;50.866;4.366;2023-03-14T04:49:25;12.00;99.90
14531;DHT22;7352;50.866;4.366;2023-03-14T04:51:53;12.00;99.90
14531;DHT22;7352;50.866;4.366;2023-03-14T04:54:20;12.00;99.90
14531;DHT22;7352;50.866;4.366;2023-03-14T04:56:50;11.90;99.90
14531;DHT22;7352;50.866;4.366;2023-03-14T04:59:18;12.00;99.90
14531;DHT22;7352;50.866;4.366;2023-03-14T05:01:44;12.00;99.90
14531;DHT22;7352;50.866;4.366;2023-03-14T05:04:14;12.00;99.90
14531;DHT22;7352;50.866;4.366;2023-03-14T05:06:41;12.00;99.90
14531;DHT22;7352;50.866;4.366;2023-03-14T05:09:08;11.90;99.90
14531;DHT22;7352;50.866;4.366;2023-03-14T05:11:36;11.80;99.90
14531;DHT22;7352;50.866;4.366;2023-03-14T05:14:05;11.90;99.90
14531;DHT22;7352;50.866;4.366;2023-03-14T05:16:31;12.00;99.90
14531;DHT22;7352;50.866;4.366;2023-03-14T05:18:59;12.00;99.90
14531;DHT22;7352;50.866;4.366;2023-03-14T05:21:27;11.90;99.90
14531;DHT22;7352;50.866;4.366;2023-03-14T05:23:54;11.90;99.90
14531;DHT22;7352;50.866;4.366;2023-03-14T05:26:23;11.90;99.90
14531;DHT22;7352;50.866;4.366;2023-03-14T05:28:50;11.90;99.90
14531;DHT22;7352;50.866;4.366;2023-03-14T05:31:18;11.80;99.90
14531;DHT22;7352;50.866;4.366;2023-03-14T05:33:45;11.70;99.90
14531;DHT22;7352;50.866;4.366;2023-03-14T05:36:13;11.80;99.90
14531;DHT22;7352;50.866;4.366;2023-03-14T05:38:43;11.70;99.90
14531;DHT22;7352;50.866;4.366;2023-03-14T05:41:14;11.70;99.90
14531;DHT22;7352;50.866;4.366;2023-03-14T05:43:42;11.70;99.90
14531;DHT22;7352;50.866;4.366;2023-03-14T05:46:09;11.60;99.90
14531;DHT22;7352;50.866;4.366;2023-03-14T05:48:43;11.80;99.90
14531;DHT22;7352;50.866;4.366;2023-03-14T05:51:11;11.80;99.90
14531;DHT22;7352;50.866;4.366;2023-03-14T05:53:39;11.80;99.90
14531;DHT22;7352;50.866;4.366;2023-03-14T05:56:08;11.90;99.90
14531;DHT22;7352;50.866;4.366;2023-03-14T05:58:35;11.80;99.90
14531;DHT22;7352;50.866;4.366;2023-03-14T06:01:03;11.80;99.90
14531;DHT22;7352;50.866;4.366;2023-03-14T06:03:32;11.80;99.90
14531;DHT22;7352;50.866;4.366;2023-03-14T06:06:04;11.90;99.90
14531;DHT22;7352;50.866;4.366;2023-03-14T06:08:30;11.90;99.90
14531;DHT22;7352;50.866;4.366;2023-03-14T06:10:58;11.90;99.90
14531;DHT22;7352;50.866;4.366;2023-03-14T06:13:25;11.90;99.90
14531;DHT22;7352;50.866;4.366;2023-03-14T06:15:52;11.90;99.90
14531;DHT22;7352;50.866;4.366;2023-03-14T06:18:19;11.90;99.90
14531;DHT22;7352;50.866;4.366;2023-03-14T06:20:47;11.90;99.90
14531;DHT22;7352;50.866;4.366;2023-03-14T06:23:16;11.90;99.90
14531;DHT22;7352;50.866;4.366;2023-03-14T06:25:43;11.80;99.90
14531;DHT22;7352;50.866;4.366;2023-03-14T06:28:10;11.70;99.90
14531;DHT22;7352;50.866;4.366;2023-03-14T06:30:37;11.70;99.90
14531;DHT22;7352;50.866;4.366;2023-03-14T06:33:04;11.70;99.90
14531;DHT22;7352;50.866;4.366;2023-03-14T06:35:32;11.60;99.90
14531;DHT22;7352;50.866;4.366;2023-03-14T06:37:59;11.70;99.90
14531;DHT22;7352;50.866;4.366;2023-03-14T06:40:27;11.60;99.90
14531;DHT22;7352;50.866;4.366;2023-03-14T06:42:54;11.60;99.90
14531;DHT22;7352;50.866;4.366;2023-03-14T06:45:22;11.60;99.90
14531;DHT22;7352;50.866;4.366;2023-03-14T06:47:50;11.60;99.90
14531;DHT22;7352;50.866;4.366;2023-03-14T06:50:31;11.30;99.90
14531;DHT22;7352;50.866;4.366;2023-03-14T06:52:58;11.00;99.90
14531;DHT22;7352;50.866;4.366;2023-03-14T06:55:27;10.50;99.90
14531;DHT22;7352;50.866;4.366;2023-03-14T06:57:55;10.20;99.90
14531;DHT22;7352;50.866;4.366;2023-03-14T07:00:22;10.00;99.90
14531;DHT22;7352;50.866;4.366;2023-03-14T07:02:50;9.90;99.90
14531;DHT22;7352;50.866;4.366;2023-03-14T07:05:17;9.70;99.90
14531;DHT22;7352;50.866;4.366;2023-03-14T07:07:44;9.60;99.90
14531;DHT22;7352;50.866;4.366;2023-03-14T07:10:11;9.50;99.90
14531;DHT22;7352;50.866;4.366;2023-03-14T07:12:40;9.40;99.90
14531;DHT22;7352;50.866;4.366;2023-03-14T07:15:07;9.20;99.90
14531;DHT22;7352;50.866;4.366;2023-03-14T07:17:34;9.10;99.90
14531;DHT22;7352;50.866;4.366;2023-03-14T07:20:03;9.00;99.90
14531;DHT22;7352;50.866;4.366;2023-03-14T07:22:31;8.80;99.90
14531;DHT22;7352;50.866;4.366;2023-03-14T07:24:57;8.80;99.90
14531;DHT22;7352;50.866;4.366;2023-03-14T07:27:24;8.80;99.90
14531;DHT22;7352;50.866;4.366;2023-03-14T07:29:53;8.80;99.90
14531;DHT22;7352;50.866;4.366;2023-03-14T07:32:20;8.90;99.90
14531;DHT22;7352;50.866;4.366;2023-03-14T07:34:46;8.80;99.90
14531;DHT22;7352;50.866;4.366;2023-03-14T07:37:14;8.70;99.90
14531;DHT22;7352;50.866;4.366;2023-03-14T07:39:40;8.70;99.90
14531;DHT22;7352;50.866;4.366;2023-03-14T07:42:07;8.80;99.90
14531;DHT22;7352;50.866;4.366;2023-03-14T07:44:34;8.70;99.90
14531;DHT22;7352;50.866;4.366;2023-03-14T07:47:03;8.80;99.90
14531;DHT22;7352;50.866;4.366;2023-03-14T07:49:30;8.90;99.90
14531;DHT22;7352;50.866;4.366;2023-03-14T07:51:57;8.90;99.90
14531;DHT22;7352;50.866;4.366;2023-03-14T07:54:25;8.90;99.90
14531;DHT22;7352;50.866;4.366;2023-03-14T07:56:52;8.80;99.90
14531;DHT22;7352;50.866;4.366;2023-03-14T07:59:19;8.90;99.90
14531;DHT22;7352;50.866;4.366;2023-03-14T08:01:46;8.70;99.90
14531;DHT22;7352;50.866;4.366;2023-03-14T08:04:15;8.80;99.90
14531;DHT22;7352;50.866;4.366;2023-03-14T08:06:42;8.70;99.90
14531;DHT22;7352;50.866;4.366;2023-03-14T08:09:09;8.60;99.90
14531;DHT22;7352;50.866;4.366;2023-03-14T08:11:36;8.70;99.90
14531;DHT22;7352;50.866;4.366;2023-03-14T08:14:03;8.60;99.90
14531;DHT22;7352;50.866;4.366;2023-03-14T08:16:30;8.70;99.90
14531;DHT22;7352;50.866;4.366;2023-03-14T08:18:57;8.80;99.90
14531;DHT22;7352;50.866;4.366;2023-03-14T08:21:26;8.70;99.90
14531;DHT22;7352;50.866;4.366;2023-03-14T08:23:53;8.70;99.90
14531;DHT22;7352;50.866;4.366;2023-03-14T08:26:21;8.70;99.90
14531;DHT22;7352;50.866;4.366;2023-03-14T08:28:48;8.80;99.90
14531;DHT22;7352;50.866;4.366;2023-03-14T08:31:15;8.70;99.90
14531;DHT22;7352;50.866;4.366;2023-03-14T08:33:42;8.80;99.90
14531;DHT22;7352;50.866;4.366;2023-03-14T08:36:09;8.70;99.90
14531;DHT22;7352;50.866;4.366;2023-03-14T08:38:38;8.60;99.90
14531;DHT22;7352;50.866;4.366;2023-03-14T08:41:08;8.60;99.90
14531;DHT22;7352;50.866;4.366;2023-03-14T08:43:35;8.60;99.90
14531;DHT22;7352;50.866;4.366;2023-03-14T08:46:04;8.40;99.90
14531;DHT22;7352;50.866;4.366;2023-03-14T08:48:31;8.20;99.90
14531;DHT22;7352;50.866;4.366;2023-03-14T08:51:04;8.20;99.90
14531;DHT22;7352;50.866;4.366;2023-03-14T08:53:31;8.20;99.90
14531;DHT22;7352;50.866;4.366;2023-03-14T08:55:59;8.20;99.90
14531;DHT22;7352;50.866;4.366;2023-03-14T08:58:27;8.20;99.90
14531;DHT22;7352;50.866;4.366;2023-03-14T09:00:54;8.10;99.90
14531;DHT22;7352;50.866;4.366;2023-03-14T09:03:22;8.20;99.90
14531;DHT22;7352;50.866;4.366;2023-03-14T09:05:54;8.20;99.90
14531;DHT22;7352;50.866;4.366;2023-03-14T09:08:22;8.10;99.90
14531;DHT22;7352;50.866;4.366;2023-03-14T09:10:48;8.10;99.90
14531;DHT22;7352;50.866;4.366;2023-03-14T09:13:17;8.10;99.90
14531;DHT22;7352;50.866;4.366;2023-03-14T09:15:44;8.10;99.90
14531;DHT22;7352;50.866;4.366;2023-03-14T09:18:12;8.00;99.90
14531;DHT22;7352;50.866;4.366;2023-03-14T09:20:39;8.00;99.90
14531;DHT22;7352;50.866;4.366;2023-03-14T09:23:08;8.00;99.90
14531;DHT22;7352;50.866;4.366;2023-03-14T09:25:41;8.00;99.90
14531;DHT22;7352;50.866;4.366;2023-03-14T09:28:08;7.90;99.90
14531;DHT22;7352;50.866;4.366;2023-03-14T09:30:36;8.00;99.90
14531;DHT22;7352;50.866;4.366;2023-03-14T09:33:03;7.90;99.90
14531;DHT22;7352;50.866;4.366;2023-03-14T09:35:30;7.80;99.90
14531;DHT22;7352;50.866;4.366;2023-03-14T09:37:57;7.80;99.90
14531;DHT22;7352;50.866;4.366;2023-03-14T09:40:31;7.90;99.90
14531;DHT22;7352;50.866;4.366;2023-03-14T09:42:59;7.90;99.90
14531;DHT22;7352;50.866;4.366;2023-03-14T09:45:28;7.80;99.90
14531;DHT22;7352;50.866;4.366;2023-03-14T09:47:58;7.80;99.90
14531;DHT22;7352;50.866;4.366;2023-03-14T09:50:31;7.90;99.90
14531;DHT22;7352;50.866;4.366;2023-03-14T09:53:02;8.10;99.90
14531;DHT22;7352;50.866;4.366;2023-03-14T09:55:30;8.10;99.90
14531;DHT22;7352;50.866;4.366;2023-03-14T09:58:00;8.10;99.90
14531;DHT22;7352;50.866;4.366;2023-03-14T10:00:31;8.00;99.90
14531;DHT22;7352;50.866;4.366;2023-03-14T10:03:22;7.90;99.90
14531;DHT22;7352;50.866;4.366;2023-03-14T10:05:51;8.10;99.90
14531;DHT22;7352;50.866;4.366;2023-03-14T10:08:18;8.30;99.90
14531;DHT22;7352;50.866;4.366;2023-03-14T10:10:45;8.30;99.90
14531;DHT22;7352;50.866;4.366;2023-03-14T10:13:16;8.50;99.90
14531;DHT22;7352;50.866;4.366;2023-03-14T10:15:48;8.70;99.90
14531;DHT22;7352;50.866;4.366;2023-03-14T10:18:23;8.70;99.90
14531;DHT22;7352;50.866;4.366;2023-03-14T10:21:03;8.50;99.90
14531;DHT22;7352;50.866;4.366;2023-03-14T10:23:32;8.40;99.90
14531;DHT22;7352;50.866;4.366;2023-03-14T10:26:06;8.30;99.90
14531;DHT22;7352;50.866;4.366;2023-03-14T10:28:37;8.20;99.90
14531;DHT22;7352;50.866;4.366;2023-03-14T10:31:05;8.00;99.90
14531;DHT22;7352;50.866;4.366;2023-03-14T10:33:35;8.00;99.90
14531;DHT22;7352;50.866;4.366;2023-03-14T10:36:05;7.80;99.90
14531;DHT22;7352;50.866;4.366;2023-03-14T10:38:36;7.80;99.90
14531;DHT22;7352;50.866;4.366;2023-03-14T10:41:15;7.90;99.90
14531;DHT22;7352;50.866;4.366;2023-03-14T10:43:43;7.90;99.90
14531;DHT22;7352;50.866;4.366;2023-03-14T10:46:14;7.80;99.90
14531;DHT22;7352;50.866;4.366;2023-03-14T10:48:44;7.80;99.90
14531;DHT22;7352;50.866;4.366;2023-03-14T10:51:19;7.90;99.90
14531;DHT22;7352;50.866;4.366;2023-03-14T10:53:47;7.90;99.90
14531;DHT22;7352;50.866;4.366;2023-03-14T10:56:18;8.00;99.90
14531;DHT22;7352;50.866;4.366;2023-03-14T10:58:49;7.80;99.90
14531;DHT22;7352;50.866;4.366;2023-03-14T11:01:31;7.60;99.90
14531;DHT22;7352;50.866;4.366;2023-03-14T11:04:06;7.70;99.90
14531;DHT22;7352;50.866;4.366;2023-03-14T11:06:43;7.90;99.90
14531;DHT22;7352;50.866;4.366;2023-03-14T11:09:15;7.70;99.90
14531;DHT22;7352;50.866;4.366;2023-03-14T11:11:46;7.70;99.90
14531;DHT22;7352;50.866;4.366;2023-03-14T11:14:20;7.70;99.90
14531;DHT22;7352;50.866;4.366;2023-03-14T11:16:57;7.50;99.90
14531;DHT22;7352;50.866;4.366;2023-03-14T11:19:43;7.70;99.90
14531;DHT22;7352;50.866;4.366;2023-03-14T11:22:21;7.70;99.90
14531;DHT22;7352;50.866;4.366;2023-03-14T11:25:06;7.70;99.90
14531;DHT22;7352;50.866;4.366;2023-03-14T11:27:42;7.70;99.90
14531;DHT22;7352;50.866;4.366;2023-03-14T11:30:19;7.40;99.90
14531;DHT22;7352;50.866;4.366;2023-03-14T11:32:53;7.30;99.90
14531;DHT22;7352;50.866;4.366;2023-03-14T11:35:28;7.20;99.90
14531;DHT22;7352;50.866;4.366;2023-03-14T11:38:02;7.20;99.90
14531;DHT22;7352;50.866;4.366;2023-03-14T11:40:31;7.00;99.90
14531;DHT22;7352;50.866;4.366;2023-03-14T11:43:04;7.00;99.90
14531;DHT22;7352;50.866;4.366;2023-03-14T11:45:35;7.10;99.90
14531;DHT22;7352;50.866;4.366;2023-03-14T11:48:38;7.20;99.90
14531;DHT22;7352;50.866;4.366;2023-03-14T11:51:15;7.30;99.90
14531;DHT22;7352;50.866;4.366;2023-03-14T11:53:50;7.10;99.90
14531;DHT22;7352;50.866;4.366;2023-03-14T11:56:27;7.10;99.90
14531;DHT22;7352;50.866;4.366;2023-03-14T11:58:59;7.20;99.90
14531;DHT22;7352;50.866;4.366;2023-03-14T12:01:37;7.10;99.90
14531;DHT22;7352;50.866;4.366;2023-03-14T12:04:13;7.20;99.90
14531;DHT22;7352;50.866;4.366;2023-03-14T12:06:48;7.40;99.90
14531;DHT22;7352;50.866;4.366;2023-03-14T12:09:16;7.50;99.90
14531;DHT22;7352;50.866;4.366;2023-03-14T12:11:48;7.60;99.90
14531;DHT22;7352;50.866;4.366;2023-03-14T12:14:21;7.70;99.90
14531;DHT22;7352;50.866;4.366;2023-03-14T12:16:53;7.80;99.90
14531;DHT22;7352;50.866;4.366;2023-03-14T12:19:29;7.90;99.90
14531;DHT22;7352;50.866;4.366;2023-03-14T12:22:05;7.90;99.90
14531;DHT22;7352;50.866;4.366;2023-03-14T12:24:34;7.80;99.90
14531;DHT22;7352;50.866;4.366;2023-03-14T12:27:03;7.70;99.90
14531;DHT22;7352;50.866;4.366;2023-03-14T12:29:31;7.70;99.90
14531;DHT22;7352;50.866;4.366;2023-03-14T12:32:12;7.50;99.90
14531;DHT22;7352;50.866;4.366;2023-03-14T12:34:48;7.50;99.90
14531;DHT22;7352;50.866;4.366;2023-03-14T12:37:35;7.50;99.90
14531;DHT22;7352;50.866;4.366;2023-03-14T12:40:19;7.70;99.90
14531;DHT22;7352;50.866;4.366;2023-03-14T12:42:56;7.50;99.90
14531;DHT22;7352;50.866;4.366;2023-03-14T12:45:29;7.50;99.90
14531;DHT22;7352;50.866;4.366;2023-03-14T12:48:04;7.40;99.90
14531;DHT22;7352;50.866;4.366;2023-03-14T12:50:44;7.30;99.90
14531;DHT22;7352;50.866;4.366;2023-03-14T12:56:58;7.30;99.90
14531;DHT22;7352;50.866;4.366;2023-03-14T12:59:30;7.40;99.90
14531;DHT22;7352;50.866;4.366;2023-03-14T13:02:18;7.50;99.90
14531;DHT22;7352;50.866;4.366;2023-03-14T13:04:48;7.60;99.90
14531;DHT22;7352;50.866;4.366;2023-03-14T13:07:32;7.70;99.90
14531;DHT22;7352;50.866;4.366;2023-03-14T13:12:51;7.80;99.90
14531;DHT22;7352;50.866;4.366;2023-03-14T13:15:23;7.80;99.90
14531;DHT22;7352;50.866;4.366;2023-03-14T13:17:53;8.10;99.90
14531;DHT22;7352;50.866;4.366;2023-03-14T13:20:27;8.10;99.90
14531;DHT22;7352;50.866;4.366;2023-03-14T13:22:55;8.00;99.90
14531;DHT22;7352;50.866;4.366;2023-03-14T13:25:22;8.10;99.90
14531;DHT22;7352;50.866;4.366;2023-03-14T13:27:52;8.00;99.90
14531;DHT22;7352;50.866;4.366;2023-03-14T13:30:22;7.70;99.90
14531;DHT22;7352;50.866;4.366;2023-03-14T13:32:53;7.80;99.90
14531;DHT22;7352;50.866;4.366;2023-03-14T13:35:44;8.00;99.90
14531;DHT22;7352;50.866;4.366;2023-03-14T13:41:46;8.40;99.90
14531;DHT22;7352;50.866;4.366;2023-03-14T13:44:35;8.50;99.90
14531;DHT22;7352;50.866;4.366;2023-03-14T13:47:05;8.50;99.90
14531;DHT22;7352;50.866;4.366;2023-03-14T13:49:38;8.50;99.90
14531;DHT22;7352;50.866;4.366;2023-03-14T13:52:22;8.60;99.90
14531;DHT22;7352;50.866;4.366;2023-03-14T13:54:52;8.70;99.90
14531;DHT22;7352;50.866;4.366;2023-03-14T13:57:19;8.70;99.90
14531;DHT22;7352;50.866;4.366;2023-03-14T14:00:00;8.70;99.90
14531;DHT22;7352;50.866;4.366;2023-03-14T14:02:31;8.60;99.90
14531;DHT22;7352;50.866;4.366;2023-03-14T14:04:59;8.80;99.90
14531;DHT22;7352;50.866;4.366;2023-03-14T14:07:26;8.80;99.90
14531;DHT22;7352;50.866;4.366;2023-03-14T14:09:54;8.40;99.90
14531;DHT22;7352;50.866;4.366;2023-03-14T14:12:27;8.60;99.90
14531;DHT22;7352;50.866;4.366;2023-03-14T14:14:58;8.60;99.90
14531;DHT22;7352;50.866;4.366;2023-03-14T14:17:30;8.70;99.90
14531;DHT22;7352;50.866;4.366;2023-03-14T14:19:58;8.60;99.90
14531;DHT22;7352;50.866;4.366;2023-03-14T14:22:26;8.50;99.90
14531;DHT22;7352;50.866;4.366;2023-03-14T14:24:53;8.40;99.90
14531;DHT22;7352;50.866;4.366;2023-03-14T14:27:27;8.40;99.90
14531;DHT22;7352;50.866;4.366;2023-03-14T14:30:00;8.40;99.90
14531;DHT22;7352;50.866;4.366;2023-03-14T14:32:35;8.30;99.90
14531;DHT22;7352;50.866;4.366;2023-03-14T14:35:03;8.20;99.90
14531;DHT22;7352;50.866;4.366;2023-03-14T14:37:31;8.30;99.90
14531;DHT22;7352;50.866;4.366;2023-03-14T14:40:01;8.30;99.90
14531;DHT22;7352;50.866;4.366;2023-03-14T14:42:30;8.10;99.90
14531;DHT22;7352;50.866;4.366;2023-03-14T14:44:59;8.00;99.90
14531;DHT22;7352;50.866;4.366;2023-03-14T14:47:29;7.90;99.90
14531;DHT22;7352;50.866;4.366;2023-03-14T14:50:00;7.80;99.90
14531;DHT22;7352;50.866;4.366;2023-03-14T14:52:34;7.40;99.90
14531;DHT22;7352;50.866;4.366;2023-03-14T14:55:12;7.10;99.90
14531;DHT22;7352;50.866;4.366;2023-03-14T14:57:40;6.90;99.90
14531;DHT22;7352;50.866;4.366;2023-03-14T15:00:19;6.80;99.90
14531;DHT22;7352;50.866;4.366;2023-03-14T15:02:47;6.80;99.90
14531;DHT22;7352;50.866;4.366;2023-03-14T15:05:15;6.90;99.90
14531;DHT22;7352;50.866;4.366;2023-03-14T15:07:43;6.90;99.90
14531;DHT22;7352;50.866;4.366;2023-03-14T15:10:11;7.00;99.90
14531;DHT22;7352;50.866;4.366;2023-03-14T15:12:38;7.20;99.90
14531;DHT22;7352;50.866;4.366;2023-03-14T15:15:07;7.40;99.90
14531;DHT22;7352;50.866;4.366;2023-03-14T15:17:37;7.60;99.90
14531;DHT22;7352;50.866;4.366;2023-03-14T15:20:06;7.70;99.90
14531;DHT22;7352;50.866;4.366;2023-03-14T15:22:38;7.80;99.90
14531;DHT22;7352;50.866;4.366;2023-03-14T15:25:07;7.90;99.90
14531;DHT22;7352;50.866;4.366;2023-03-14T15:27:35;8.10;99.90
14531;DHT22;7352;50.866;4.366;2023-03-14T15:30:10;8.30;99.90
14531;DHT22;7352;50.866;4.366;2023-03-14T15:32:39;8.60;99.90
14531;DHT22;7352;50.866;4.366;2023-03-14T15:35:07;8.70;99.90
14531;DHT22;7352;50.866;4.366;2023-03-14T15:37:35;8.80;99.90
14531;DHT22;7352;50.866;4.366;2023-03-14T15:40:03;8.80;99.90
14531;DHT22;7352;50.866;4.366;2023-03-14T15:42:37;8.70;99.90
14531;DHT22;7352;50.866;4.366;2023-03-14T15:45:05;8.90;99.90
14531;DHT22;7352;50.866;4.366;2023-03-14T15:47:32;8.80;99.90
14531;DHT22;7352;50.866;4.366;2023-03-14T15:50:00;8.90;99.90
14531;DHT22;7352;50.866;4.366;2023-03-14T15:52:27;9.00;99.90
14531;DHT22;7352;50.866;4.366;2023-03-14T15:54:54;8.70;99.90
14531;DHT22;7352;50.866;4.366;2023-03-14T15:57:21;8.60;99.90
14531;DHT22;7352;50.866;4.366;2023-03-14T15:59:48;8.50;99.90
14531;DHT22;7352;50.866;4.366;2023-03-14T16:02:16;8.50;99.90
14531;DHT22;7352;50.866;4.366;2023-03-14T16:04:43;8.50;99.90
14531;DHT22;7352;50.866;4.366;2023-03-14T16:07:16;8.40;99.70
14531;DHT22;7352;50.866;4.366;2023-03-14T16:09:43;8.50;99.90
14531;DHT22;7352;50.866;4.366;2023-03-14T16:12:10;8.50;99.90
14531;DHT22;7352;50.866;4.366;2023-03-14T16:14:37;8.50;99.90
14531;DHT22;7352;50.866;4.366;2023-03-14T16:17:09;8.20;99.90
14531;DHT22;7352;50.866;4.366;2023-03-14T16:19:37;8.10;99.90
14531;DHT22;7352;50.866;4.366;2023-03-14T16:22:04;8.30;99.90
14531;DHT22;7352;50.866;4.366;2023-03-14T16:24:36;8.40;99.90